createdAt,value
2019-01-02T00:00:59.176Z,5.87
2019-01-02T00:02:00.036Z,5.92
2019-01-02T00:02:59.211Z,5.94
2019-01-02T00:03:58.573Z,5.90
2019-01-02T00:05:00.012Z,5.88
2019-01-02T00:05:58.399Z,5.81
2019-01-02T00:06:58.408Z,5.87
2019-01-02T00:07:59.178Z,5.81
2019-01-02T00:08:58.426Z,5.80
2019-01-02T00:09:58.477Z,5.70
2019-01-02T00:10:58.413Z,5.84
2019-01-02T00:11:58.387Z,5.72
2019-01-02T00:12:58.460Z,5.70
2019-01-02T00:13:58.478Z,5.61
2019-01-02T00:14:59.591Z,5.70
2019-01-02T00:16:00.410Z,5.65
2019-01-02T00:16:59.086Z,5.61
2019-01-02T00:17:59.012Z,5.62
2019-01-02T00:18:59.872Z,5.70
2019-01-02T00:19:58.940Z,5.73
2019-01-02T00:20:58.474Z,5.58
2019-01-02T00:21:59.800Z,5.65
2019-01-02T00:23:00.510Z,5.52
2019-01-02T00:23:59.019Z,5.59
2019-01-02T00:24:58.568Z,5.64
2019-01-02T00:25:58.673Z,5.52
2019-01-02T00:26:58.490Z,5.58
2019-01-02T00:27:59.501Z,5.52
2019-01-02T00:28:58.683Z,5.55
2019-01-02T00:29:58.681Z,5.44
2019-01-02T00:30:58.645Z,5.52
2019-01-02T00:31:58.503Z,5.44
2019-01-02T00:32:58.534Z,5.51
2019-01-02T00:33:58.520Z,5.47
2019-01-02T00:34:58.530Z,5.49
2019-01-02T00:35:58.530Z,5.49
2019-01-02T00:36:58.504Z,5.55
2019-01-02T00:37:58.495Z,5.43
2019-01-02T00:38:58.512Z,5.55
2019-01-02T00:39:58.491Z,5.51
2019-01-02T00:40:58.477Z,5.51
2019-01-02T00:41:58.496Z,5.54
2019-01-02T00:42:58.492Z,5.54
2019-01-02T00:43:58.479Z,5.58
2019-01-02T00:44:58.517Z,5.51
2019-01-02T00:45:58.497Z,5.55
2019-01-02T00:46:58.516Z,5.49
2019-01-02T00:47:58.502Z,5.47
2019-01-02T00:48:58.520Z,5.49
2019-01-02T00:49:58.529Z,5.55
2019-01-02T00:50:58.617Z,5.49
2019-01-02T00:51:58.611Z,5.49
2019-01-02T00:52:58.507Z,5.49
2019-01-02T00:53:58.626Z,5.49
2019-01-02T00:54:59.185Z,5.49
2019-01-02T00:55:58.592Z,5.43
2019-01-02T00:56:58.587Z,5.43
2019-01-02T00:57:58.527Z,5.41
2019-01-02T00:58:58.544Z,5.43
2019-01-02T00:59:58.551Z,5.44
2019-01-02T01:00:58.558Z,5.47
2019-01-02T01:01:58.532Z,5.52
2019-01-02T01:02:58.591Z,5.51
2019-01-02T01:03:58.549Z,5.49
2019-01-02T01:04:58.571Z,5.36
2019-01-02T01:05:58.545Z,5.36
2019-01-02T01:06:58.609Z,5.47
2019-01-02T01:07:58.599Z,5.41
2019-01-02T01:08:58.564Z,5.34
2019-01-02T01:09:58.567Z,5.38
2019-01-02T01:10:58.788Z,5.38
2019-01-02T01:11:58.687Z,5.43
2019-01-02T01:12:58.629Z,5.37
2019-01-02T01:13:58.594Z,5.37
2019-01-02T01:14:58.563Z,5.36
2019-01-02T01:15:58.593Z,5.40
2019-01-02T01:16:58.621Z,5.31
2019-01-02T01:17:58.639Z,5.41
2019-01-02T01:18:58.592Z,5.36
2019-01-02T01:19:58.611Z,5.38
2019-01-02T01:20:58.689Z,5.37
2019-01-02T01:21:58.620Z,5.38
2019-01-02T01:22:58.590Z,5.38
2019-01-02T01:23:58.643Z,5.37
2019-01-02T01:24:58.600Z,5.41
2019-01-02T01:25:58.608Z,5.36
2019-01-02T01:26:58.606Z,5.40
2019-01-02T01:27:58.666Z,5.34
2019-01-02T01:28:58.706Z,5.36
2019-01-02T01:29:58.620Z,5.36
2019-01-02T01:30:58.742Z,5.37
2019-01-02T01:31:59.812Z,5.36
2019-01-02T01:32:58.854Z,5.31
2019-01-02T01:33:58.683Z,5.34
2019-01-02T01:34:58.899Z,5.38
2019-01-02T01:35:59.194Z,5.33
2019-01-02T01:36:58.674Z,5.36
2019-01-02T01:37:58.649Z,5.34
2019-01-02T01:38:58.637Z,5.37
2019-01-02T01:39:58.658Z,5.37
2019-01-02T01:40:58.676Z,5.31
2019-01-02T01:41:58.659Z,5.37
2019-01-02T01:42:58.672Z,5.36
2019-01-02T01:43:58.668Z,5.40
2019-01-02T01:44:58.690Z,5.36
2019-01-02T01:45:58.733Z,5.33
2019-01-02T01:46:58.661Z,5.37
2019-01-02T01:47:59.395Z,5.34
2019-01-02T01:48:58.678Z,5.31
2019-01-02T01:49:58.679Z,5.36
2019-01-02T01:50:58.685Z,5.34
2019-01-02T01:51:58.794Z,5.37
2019-01-02T01:52:58.691Z,5.44
2019-01-02T01:53:58.729Z,5.41
2019-01-02T01:54:58.686Z,5.37
2019-01-02T01:55:58.751Z,5.36
2019-01-02T01:56:58.742Z,5.36
2019-01-02T01:57:59.086Z,5.33
2019-01-02T01:58:58.915Z,5.33
2019-01-02T01:59:58.828Z,5.38
2019-01-02T02:00:58.824Z,5.38
2019-01-02T02:01:58.932Z,5.28
2019-01-02T02:02:59.316Z,5.25
2019-01-02T02:03:58.837Z,5.33
2019-01-02T02:04:59.004Z,5.37
2019-01-02T02:05:58.964Z,5.37
2019-01-02T02:06:58.911Z,5.31
2019-01-02T02:08:01.535Z,5.28
2019-01-02T02:09:00.685Z,5.33
2019-01-02T02:10:01.523Z,5.34
2019-01-02T02:10:59.498Z,5.28
2019-01-02T02:11:58.851Z,5.28
2019-01-02T02:12:58.934Z,5.28
2019-01-02T02:13:58.822Z,5.22
2019-01-02T02:14:58.833Z,5.23
2019-01-02T02:15:58.929Z,5.36
2019-01-02T02:16:58.868Z,5.23
2019-01-02T02:17:58.857Z,5.20
2019-01-02T02:18:58.884Z,5.29
2019-01-02T02:19:58.952Z,5.33
2019-01-02T02:20:58.861Z,5.28
2019-01-02T02:21:58.867Z,5.23
2019-01-02T02:22:58.870Z,5.28
2019-01-02T02:23:58.965Z,5.26
2019-01-02T02:24:59.013Z,5.26
2019-01-02T02:25:58.860Z,5.20
2019-01-02T02:26:58.860Z,5.22
2019-01-02T02:27:58.850Z,5.19
2019-01-02T02:28:58.925Z,5.19
2019-01-02T02:29:58.886Z,5.25
2019-01-02T02:30:58.857Z,5.25
2019-01-02T02:31:58.822Z,5.23
2019-01-02T02:32:58.815Z,5.26
2019-01-02T02:33:58.880Z,5.23
2019-01-02T02:34:58.876Z,5.25
2019-01-02T02:35:58.892Z,5.15
2019-01-02T02:36:58.869Z,5.15
2019-01-02T02:37:58.857Z,5.23
2019-01-02T02:38:58.907Z,5.19
2019-01-02T02:39:58.874Z,5.25
2019-01-02T02:40:58.917Z,5.16
2019-01-02T02:41:58.849Z,5.15
2019-01-02T02:42:58.918Z,5.16
2019-01-02T02:43:58.887Z,5.20
2019-01-02T02:44:58.846Z,5.15
2019-01-02T02:45:58.866Z,5.23
2019-01-02T02:46:58.890Z,5.20
2019-01-02T02:47:58.879Z,5.18
2019-01-02T02:48:58.940Z,5.16
2019-01-02T02:49:58.880Z,5.19
2019-01-02T02:50:58.910Z,5.15
2019-01-02T02:51:58.976Z,5.16
2019-01-02T02:52:58.940Z,5.29
2019-01-02T02:53:58.939Z,5.22
2019-01-02T02:54:58.966Z,5.28
2019-01-02T02:55:58.911Z,5.28
2019-01-02T02:56:58.954Z,5.25
2019-01-02T02:57:58.918Z,5.33
2019-01-02T02:58:58.915Z,5.38
2019-01-02T02:59:58.894Z,5.41
2019-01-02T03:00:58.998Z,5.37
2019-01-02T03:01:58.991Z,5.36
2019-01-02T03:02:58.945Z,5.36
2019-01-02T03:03:58.893Z,5.40
2019-01-02T03:04:58.963Z,5.38
2019-01-02T03:05:58.963Z,5.33
2019-01-02T03:06:58.986Z,5.49
2019-01-02T03:07:58.896Z,5.49
2019-01-02T03:08:58.989Z,5.43
2019-01-02T03:09:58.915Z,5.47
2019-01-02T03:10:59.508Z,5.52
2019-01-02T03:11:58.988Z,5.40
2019-01-02T03:12:58.971Z,5.41
2019-01-02T03:13:58.965Z,5.47
2019-01-02T03:14:58.949Z,5.37
2019-01-02T03:15:59.003Z,5.40
2019-01-02T03:16:58.946Z,5.38
2019-01-02T03:17:58.933Z,5.40
2019-01-02T03:18:58.958Z,5.55
2019-01-02T03:19:58.973Z,5.40
2019-01-02T03:20:58.933Z,5.52
2019-01-02T03:21:58.988Z,5.51
2019-01-02T03:22:58.958Z,5.59
2019-01-02T03:23:58.994Z,5.52
2019-01-02T03:24:59.001Z,5.52
2019-01-02T03:25:58.984Z,5.56
2019-01-02T03:26:58.993Z,5.56
2019-01-02T03:27:58.987Z,5.64
2019-01-02T03:28:58.990Z,5.61
2019-01-02T03:29:59.022Z,5.61
2019-01-02T03:30:59.005Z,5.58
2019-01-02T03:31:59.001Z,5.52
2019-01-02T03:32:59.037Z,5.55
2019-01-02T03:33:59.013Z,5.72
2019-01-02T03:34:58.979Z,5.76
2019-01-02T03:35:59.047Z,5.64
2019-01-02T03:36:59.044Z,5.65
2019-01-02T03:37:59.041Z,5.73
2019-01-02T03:38:59.060Z,5.76
2019-01-02T03:39:59.005Z,5.70
2019-01-02T03:40:59.103Z,5.73
2019-01-02T03:41:59.057Z,5.74
2019-01-02T03:42:59.007Z,5.73
2019-01-02T03:43:59.075Z,5.76
2019-01-02T03:44:59.045Z,5.72
2019-01-02T03:45:59.085Z,5.74
2019-01-02T03:46:59.122Z,5.76
2019-01-02T03:47:59.051Z,5.77
2019-01-02T03:48:59.047Z,5.76
2019-01-02T03:49:59.069Z,5.76
2019-01-02T03:50:59.058Z,5.74
2019-01-02T03:51:59.071Z,5.73
2019-01-02T03:52:59.084Z,5.65
2019-01-02T03:53:59.137Z,5.72
2019-01-02T03:54:59.172Z,5.69
2019-01-02T03:55:59.152Z,5.69
2019-01-02T03:56:59.133Z,5.69
2019-01-02T03:57:59.096Z,5.67
2019-01-02T03:58:59.089Z,5.67
2019-01-02T03:59:59.097Z,5.61
2019-01-02T04:00:59.125Z,5.70
2019-01-02T04:01:59.131Z,5.55
2019-01-02T04:02:59.106Z,5.47
2019-01-02T04:03:59.080Z,5.56
2019-01-02T04:04:59.099Z,5.73
2019-01-02T04:05:59.152Z,5.61
2019-01-02T04:06:59.111Z,5.69
2019-01-02T04:07:59.111Z,5.58
2019-01-02T04:08:59.179Z,5.55
2019-01-02T04:09:59.127Z,5.62
2019-01-02T04:10:59.109Z,5.67
2019-01-02T04:11:59.102Z,5.64
2019-01-02T04:12:59.108Z,5.67
2019-01-02T04:13:59.182Z,5.67
2019-01-02T04:14:59.126Z,5.59
2019-01-02T04:15:59.126Z,5.59
2019-01-02T04:16:59.122Z,5.61
2019-01-02T04:17:59.170Z,5.69
2019-01-02T04:18:59.174Z,5.72
2019-01-02T04:19:59.235Z,5.58
2019-01-02T04:20:59.162Z,5.69
2019-01-02T04:21:59.162Z,5.70
2019-01-02T04:22:59.160Z,5.69
2019-01-02T04:23:59.157Z,5.70
2019-01-02T04:24:59.200Z,5.70
2019-01-02T04:25:59.134Z,5.67
2019-01-02T04:26:59.142Z,5.64
2019-01-02T04:27:59.155Z,5.70
2019-01-02T04:28:59.163Z,5.70
2019-01-02T04:29:59.176Z,5.72
2019-01-02T04:30:59.182Z,5.70
2019-01-02T04:31:59.230Z,5.61
2019-01-02T04:32:59.183Z,5.62
2019-01-02T04:33:59.190Z,5.70
2019-01-02T04:34:59.185Z,5.74
2019-01-02T04:35:59.176Z,5.73
2019-01-02T04:36:59.213Z,5.64
2019-01-02T04:37:59.213Z,5.79
2019-01-02T04:38:59.197Z,5.77
2019-01-02T04:39:59.188Z,5.76
2019-01-02T04:40:59.243Z,5.74
2019-01-02T04:41:59.209Z,5.73
2019-01-02T04:42:59.214Z,5.72
2019-01-02T04:43:59.238Z,5.73
2019-01-02T04:44:59.232Z,5.70
2019-01-02T04:45:59.258Z,5.72
2019-01-02T04:46:59.248Z,5.73
2019-01-02T04:47:59.291Z,5.72
2019-01-02T04:48:59.212Z,5.70
2019-01-02T04:49:59.246Z,5.72
2019-01-02T04:50:59.221Z,5.72
2019-01-02T04:51:59.266Z,5.73
2019-01-02T04:52:59.218Z,5.62
2019-01-02T04:53:59.225Z,5.69
2019-01-02T04:54:59.223Z,5.59
2019-01-02T04:55:59.240Z,5.54
2019-01-02T04:56:59.250Z,5.54
2019-01-02T04:57:59.253Z,5.55
2019-01-02T04:58:59.265Z,5.52
2019-01-02T04:59:59.250Z,5.54
2019-01-02T05:00:59.268Z,5.56
2019-01-02T05:01:59.295Z,5.55
2019-01-02T05:02:59.250Z,5.43
2019-01-02T05:03:59.252Z,5.49
2019-01-02T05:04:59.310Z,5.43
2019-01-02T05:05:59.291Z,5.43
2019-01-02T05:06:59.370Z,5.52
2019-01-02T05:07:59.268Z,5.51
2019-01-02T05:08:59.323Z,5.37
2019-01-02T05:09:59.276Z,5.40
2019-01-02T05:10:59.338Z,5.51
2019-01-02T05:11:59.326Z,5.47
2019-01-02T05:12:59.329Z,5.40
2019-01-02T05:13:59.290Z,5.36
2019-01-02T05:14:59.319Z,5.37
2019-01-02T05:15:59.369Z,5.34
2019-01-02T05:16:59.324Z,5.34
2019-01-02T05:17:59.369Z,5.36
2019-01-02T05:18:59.311Z,5.20
2019-01-02T05:19:59.372Z,5.16
2019-01-02T05:20:59.332Z,5.20
2019-01-02T05:21:59.316Z,5.25
2019-01-02T05:22:59.318Z,5.23
2019-01-02T05:23:59.367Z,5.20
2019-01-02T05:24:59.326Z,5.29
2019-01-02T05:25:59.327Z,5.34
2019-01-02T05:26:59.374Z,5.26
2019-01-02T05:27:59.374Z,5.37
2019-01-02T05:28:59.366Z,5.37
2019-01-02T05:29:59.385Z,5.37
2019-01-02T05:30:59.358Z,5.40
2019-01-02T05:31:59.375Z,5.41
2019-01-02T05:32:59.395Z,5.51
2019-01-02T05:33:59.411Z,5.51
2019-01-02T05:34:59.451Z,5.54
2019-01-02T05:35:59.389Z,5.56
2019-01-02T05:36:59.449Z,5.54
2019-01-02T05:37:59.349Z,5.43
2019-01-02T05:38:59.396Z,5.49
2019-01-02T05:39:59.400Z,5.55
2019-01-02T05:40:59.408Z,5.61
2019-01-02T05:41:59.406Z,5.55
2019-01-02T05:42:59.430Z,5.59
2019-01-02T05:43:59.423Z,5.62
2019-01-02T05:44:59.424Z,5.69
2019-01-02T05:45:59.417Z,5.65
2019-01-02T05:46:59.403Z,5.59
2019-01-02T05:47:59.398Z,5.59
2019-01-02T05:48:59.439Z,5.59
2019-01-02T05:49:59.425Z,5.67
2019-01-02T05:50:59.457Z,5.62
2019-01-02T05:51:59.476Z,5.70
2019-01-02T05:52:59.447Z,5.74
2019-01-02T05:53:59.487Z,5.72
2019-01-02T05:54:59.434Z,5.81
2019-01-02T05:55:59.426Z,5.79
2019-01-02T05:56:59.493Z,5.77
2019-01-02T05:57:59.443Z,5.77
2019-01-02T05:58:59.422Z,5.84
2019-01-02T05:59:59.460Z,5.83
2019-01-02T06:00:59.473Z,5.74
2019-01-02T06:01:59.453Z,5.73
2019-01-02T06:02:59.449Z,5.79
2019-01-02T06:03:59.494Z,5.84
2019-01-02T06:04:59.511Z,5.81
2019-01-02T06:05:59.470Z,5.70
2019-01-02T06:06:59.505Z,5.67
2019-01-02T06:07:59.484Z,5.76
2019-01-02T06:08:59.512Z,5.79
2019-01-02T06:09:59.501Z,5.77
2019-01-02T06:10:59.525Z,5.73
2019-01-02T06:11:59.508Z,5.76
2019-01-02T06:12:59.511Z,5.77
2019-01-02T06:13:59.498Z,5.73
2019-01-02T06:14:59.507Z,5.73
2019-01-02T06:15:59.572Z,5.70
2019-01-02T06:16:59.497Z,5.65
2019-01-02T06:17:59.517Z,5.69
2019-01-02T06:18:59.553Z,5.76
2019-01-02T06:19:59.600Z,5.73
2019-01-02T06:20:59.577Z,5.76
2019-01-02T06:21:59.615Z,5.76
2019-01-02T06:22:59.540Z,5.72
2019-01-02T06:23:59.522Z,5.87
2019-01-02T06:24:59.512Z,5.90
2019-01-02T06:25:59.569Z,5.84
2019-01-02T06:26:59.637Z,5.84
2019-01-02T06:27:59.607Z,5.74
2019-01-02T06:28:59.584Z,5.80
2019-01-02T06:29:59.530Z,5.74
2019-01-02T06:30:59.571Z,5.74
2019-01-02T06:31:59.695Z,5.80
2019-01-02T06:32:59.530Z,5.73
2019-01-02T06:33:59.565Z,5.64
2019-01-02T06:34:59.582Z,5.62
2019-01-02T06:35:59.574Z,5.72
2019-01-02T06:36:59.597Z,5.61
2019-01-02T06:37:59.570Z,5.70
2019-01-02T06:38:59.610Z,5.70
2019-01-02T06:39:59.622Z,5.73
2019-01-02T06:40:59.615Z,5.70
2019-01-02T06:41:59.591Z,5.76
2019-01-02T06:42:59.583Z,5.64
2019-01-02T06:43:59.735Z,5.65
2019-01-02T06:44:59.685Z,5.62
2019-01-02T06:45:59.582Z,5.73
2019-01-02T06:47:00.392Z,5.70
2019-01-02T06:47:59.698Z,5.69
2019-01-02T06:48:59.607Z,5.69
2019-01-02T06:49:59.636Z,5.56
2019-01-02T06:50:59.772Z,5.58
2019-01-02T06:52:00.509Z,5.51
2019-01-02T06:52:59.670Z,5.49
2019-01-02T06:53:59.681Z,5.55
2019-01-02T06:54:59.612Z,5.51
2019-01-02T06:55:59.817Z,5.49
2019-01-02T06:56:59.642Z,5.51
2019-01-02T06:57:59.646Z,5.58
2019-01-02T06:58:59.677Z,5.61
2019-01-02T06:59:59.627Z,5.55
2019-01-02T07:00:59.685Z,5.51
2019-01-02T07:01:59.622Z,5.54
2019-01-02T07:02:59.667Z,5.40
2019-01-02T07:03:59.670Z,5.36
2019-01-02T07:04:59.616Z,5.40
2019-01-02T07:05:59.663Z,5.37
2019-01-02T07:06:59.774Z,5.33
2019-01-02T07:07:59.725Z,5.40
2019-01-02T07:08:59.856Z,5.41
2019-01-02T07:10:01.020Z,5.41
2019-01-02T07:10:59.893Z,5.51
2019-01-02T07:11:59.678Z,5.49
2019-01-02T07:12:59.810Z,5.33
2019-01-02T07:13:59.756Z,5.49
2019-01-02T07:14:59.783Z,5.49
2019-01-02T07:15:59.697Z,5.51
2019-01-02T07:16:59.724Z,5.52
2019-01-02T07:17:59.724Z,5.58
2019-01-02T07:18:59.711Z,5.58
2019-01-02T07:19:59.753Z,5.58
2019-01-02T07:20:59.718Z,5.55
2019-01-02T07:21:59.792Z,5.58
2019-01-02T07:22:59.742Z,5.51
2019-01-02T07:23:59.871Z,5.44
2019-01-02T07:24:59.691Z,5.52
2019-01-02T07:25:59.700Z,5.56
2019-01-02T07:26:59.702Z,5.55
2019-01-02T07:27:59.767Z,5.55
2019-01-02T07:28:59.816Z,5.51
2019-01-02T07:29:59.719Z,5.49
2019-01-02T07:30:59.786Z,5.55
2019-01-02T07:31:59.782Z,5.54
2019-01-02T07:32:59.780Z,5.55
2019-01-02T07:33:59.819Z,5.55
2019-01-02T07:34:59.799Z,5.58
2019-01-02T07:35:59.892Z,5.70
2019-01-02T07:36:59.839Z,5.67
2019-01-02T07:37:59.894Z,5.61
2019-01-02T07:38:59.771Z,5.51
2019-01-02T07:39:59.750Z,5.49
2019-01-02T07:40:59.854Z,5.51
2019-01-02T07:41:59.817Z,5.49
2019-01-02T07:42:59.803Z,5.56
2019-01-02T07:43:59.753Z,5.55
2019-01-02T07:44:59.756Z,5.52
2019-01-02T07:45:59.795Z,5.55
2019-01-02T07:47:00.041Z,5.51
2019-01-02T07:47:59.769Z,5.46
2019-01-02T07:48:59.812Z,5.47
2019-01-02T07:49:59.805Z,5.55
2019-01-02T07:51:00.328Z,5.58
2019-01-02T07:51:59.819Z,5.56
2019-01-02T07:52:59.785Z,5.65
2019-01-02T07:53:59.830Z,5.59
2019-01-02T07:55:00.921Z,5.69
2019-01-02T07:55:59.788Z,5.59
2019-01-02T07:56:59.852Z,5.67
2019-01-02T07:57:59.841Z,5.72
2019-01-02T07:58:59.800Z,5.69
2019-01-02T08:00:00.161Z,5.69
2019-01-02T08:00:59.898Z,5.59
2019-01-02T08:01:59.850Z,5.69
2019-01-02T08:02:59.887Z,5.61
2019-01-02T08:03:59.827Z,5.64
2019-01-02T08:04:59.821Z,5.54
2019-01-02T08:05:59.810Z,5.44
2019-01-02T08:06:59.859Z,5.55
2019-01-02T08:07:59.878Z,5.52
2019-01-02T08:08:59.916Z,5.55
2019-01-02T08:09:59.891Z,5.52
2019-01-02T08:10:59.844Z,5.64
2019-01-02T08:11:59.869Z,5.54
2019-01-02T08:13:00.007Z,5.55
2019-01-02T08:13:59.972Z,5.52
2019-01-02T08:15:03.265Z,5.64
2019-01-02T08:15:59.875Z,5.55
2019-01-02T08:16:59.854Z,5.72
2019-01-02T08:17:59.884Z,5.70
2019-01-02T08:18:59.872Z,5.70
2019-01-02T08:19:59.906Z,5.54
2019-01-02T08:20:59.886Z,5.55
2019-01-02T08:21:59.897Z,5.70
2019-01-02T08:23:00.081Z,5.54
2019-01-02T08:23:59.894Z,5.61
2019-01-02T08:25:00.003Z,5.49
2019-01-02T08:25:59.889Z,5.47
2019-01-02T08:26:59.887Z,5.43
2019-01-02T08:27:59.897Z,5.55
2019-01-02T08:29:00.052Z,5.58
2019-01-02T08:29:59.908Z,5.54
2019-01-02T08:30:59.957Z,5.43
2019-01-02T08:31:59.894Z,5.38
2019-01-02T08:32:59.899Z,5.33
2019-01-02T08:33:59.914Z,5.33
2019-01-02T08:34:59.957Z,5.25
2019-01-02T08:35:59.960Z,5.23
2019-01-02T08:37:01.078Z,5.18
2019-01-02T08:37:59.910Z,5.26
2019-01-02T08:38:59.921Z,5.23
2019-01-02T08:39:59.929Z,5.26
2019-01-02T08:40:59.994Z,5.26
2019-01-02T08:41:59.989Z,5.23
2019-01-02T08:43:00.626Z,5.28
2019-01-02T08:43:59.924Z,5.26
2019-01-02T08:44:59.986Z,5.28
2019-01-02T08:45:59.976Z,5.19
2019-01-02T08:47:00.248Z,5.22
2019-01-02T08:47:59.953Z,5.23
2019-01-02T08:48:59.958Z,5.37
2019-01-02T08:50:00.158Z,5.13
2019-01-02T08:51:00.436Z,5.19
2019-01-02T08:52:00.040Z,5.01
2019-01-02T08:52:59.987Z,5.04
2019-01-02T08:53:59.993Z,4.75
2019-01-02T08:54:59.966Z,4.68
2019-01-02T08:56:00.014Z,4.61
2019-01-02T08:57:00.054Z,4.40
2019-01-02T08:58:00.254Z,4.36
2019-01-02T08:59:00.124Z,4.12
2019-01-02T09:00:00.244Z,3.91
2019-01-02T09:01:00.153Z,3.73
2019-01-02T09:02:00.088Z,3.66
2019-01-02T09:03:00.164Z,3.52
2019-01-02T09:04:00.018Z,3.43
2019-01-02T09:05:00.001Z,3.46
2019-01-02T09:06:00.037Z,3.40
2019-01-02T09:07:00.261Z,3.46
2019-01-02T09:08:00.094Z,3.49
2019-01-02T09:09:00.001Z,3.37
2019-01-02T09:10:00.000Z,3.22
2019-01-02T09:11:00.084Z,3.06
2019-01-02T09:12:00.065Z,3.08
2019-01-02T09:13:00.059Z,2.97
2019-01-02T09:14:00.022Z,3.00
2019-01-02T09:15:00.016Z,2.93
2019-01-02T09:16:00.221Z,2.88
2019-01-02T09:17:00.064Z,2.85
2019-01-02T09:18:00.112Z,2.95
2019-01-02T09:19:00.038Z,3.00
2019-01-02T09:20:00.020Z,3.01
2019-01-02T09:21:00.151Z,3.00
2019-01-02T09:22:00.041Z,2.98
2019-01-02T09:23:00.052Z,3.12
2019-01-02T09:24:00.071Z,3.13
2019-01-02T09:25:00.240Z,3.11
2019-01-02T09:26:00.060Z,3.15
2019-01-02T09:27:00.121Z,3.12
2019-01-02T09:28:00.037Z,3.11
2019-01-02T09:29:00.049Z,3.11
2019-01-02T09:30:00.247Z,3.05
2019-01-02T09:31:00.133Z,3.15
2019-01-02T09:32:00.052Z,3.16
2019-01-02T09:33:00.098Z,3.03
2019-01-02T09:34:00.067Z,3.16
2019-01-02T09:35:00.128Z,3.21
2019-01-02T09:36:00.079Z,3.26
2019-01-02T09:37:00.061Z,3.33
2019-01-02T09:38:00.073Z,3.36
2019-01-02T09:39:00.103Z,3.36
2019-01-02T09:40:00.497Z,3.37
2019-01-02T09:41:00.090Z,3.46
2019-01-02T09:42:00.070Z,3.43
2019-01-02T09:43:00.094Z,3.40
2019-01-02T09:44:00.084Z,3.40
2019-01-02T09:45:00.171Z,3.27
2019-01-02T09:46:00.126Z,3.29
2019-01-02T09:47:00.150Z,3.31
2019-01-02T09:48:00.123Z,3.24
2019-01-02T09:49:00.137Z,3.33
2019-01-02T09:50:00.201Z,3.40
2019-01-02T09:51:00.130Z,3.31
2019-01-02T09:52:00.131Z,3.48
2019-01-02T09:53:00.195Z,3.50
2019-01-02T09:54:00.145Z,3.49
2019-01-02T09:55:01.558Z,3.50
2019-01-02T09:56:00.129Z,3.53
2019-01-02T09:57:00.110Z,3.55
2019-01-02T09:58:00.141Z,3.58
2019-01-02T09:59:00.124Z,3.68
2019-01-02T10:00:00.198Z,3.66
2019-01-02T10:01:00.138Z,3.70
2019-01-02T10:02:00.649Z,3.63
2019-01-02T10:03:00.130Z,3.70
2019-01-02T10:04:00.140Z,3.76
2019-01-02T10:05:00.220Z,3.76
2019-01-02T10:06:00.142Z,3.73
2019-01-02T10:07:00.981Z,3.78
2019-01-02T10:08:00.174Z,3.81
2019-01-02T10:09:00.161Z,3.76
2019-01-02T10:10:00.228Z,3.74
2019-01-02T10:11:00.140Z,3.85
2019-01-02T10:12:00.156Z,3.78
2019-01-02T10:13:00.177Z,3.91
2019-01-02T10:14:00.189Z,3.96
2019-01-02T10:15:00.246Z,4.04
2019-01-02T10:16:00.306Z,3.91
2019-01-02T10:17:00.159Z,4.10
2019-01-02T10:18:00.152Z,4.14
2019-01-02T10:19:00.259Z,4.12
2019-01-02T10:20:00.198Z,4.10
2019-01-02T10:21:00.162Z,4.12
2019-01-02T10:22:00.182Z,4.14
2019-01-02T10:23:00.167Z,4.12
2019-01-02T10:24:00.177Z,4.07
2019-01-02T10:25:00.210Z,4.20
2019-01-02T10:26:00.186Z,4.20
2019-01-02T10:27:00.182Z,4.16
2019-01-02T10:28:00.182Z,4.14
2019-01-02T10:29:00.212Z,4.20
2019-01-02T10:30:00.271Z,4.28
2019-01-02T10:31:00.197Z,4.22
2019-01-02T10:32:00.204Z,4.36
2019-01-02T10:33:00.220Z,4.31
2019-01-02T10:34:00.193Z,4.22
2019-01-02T10:35:00.225Z,4.28
2019-01-02T10:36:00.241Z,4.25
2019-01-02T10:37:00.212Z,4.24
2019-01-02T10:38:00.265Z,4.45
2019-01-02T10:39:00.396Z,4.46
2019-01-02T10:40:00.270Z,4.43
2019-01-02T10:41:00.379Z,4.48
2019-01-02T10:42:00.259Z,4.42
2019-01-02T10:43:00.280Z,4.32
2019-01-02T10:44:00.245Z,4.27
2019-01-02T10:45:00.267Z,4.25
2019-01-02T10:46:00.269Z,4.38
2019-01-02T10:47:00.324Z,4.49
2019-01-02T10:48:00.281Z,4.50
2019-01-02T10:49:00.250Z,4.50
2019-01-02T10:50:00.263Z,4.60
2019-01-02T10:51:00.251Z,4.50
2019-01-02T10:52:00.247Z,4.46
2019-01-02T10:53:00.278Z,4.46
2019-01-02T10:54:00.376Z,4.49
2019-01-02T10:55:00.258Z,4.40
2019-01-02T10:56:00.259Z,4.36
2019-01-02T10:57:00.269Z,4.38
2019-01-02T10:58:00.316Z,4.27
2019-01-02T10:59:00.270Z,4.25
2019-01-02T11:00:00.267Z,4.28
2019-01-02T11:01:00.319Z,4.22
2019-01-02T11:02:00.272Z,4.22
2019-01-02T11:03:00.350Z,4.28
2019-01-02T11:04:00.323Z,4.22
2019-01-02T11:05:00.369Z,4.22
2019-01-02T11:06:00.285Z,4.27
2019-01-02T11:07:00.319Z,4.22
2019-01-02T11:08:00.289Z,4.20
2019-01-02T11:09:00.360Z,4.14
2019-01-02T11:10:00.348Z,4.07
2019-01-02T11:11:00.337Z,4.12
2019-01-02T11:12:00.307Z,4.03
2019-01-02T11:13:00.314Z,3.95
2019-01-02T11:14:00.353Z,3.99
2019-01-02T11:15:00.398Z,4.02
2019-01-02T11:16:00.345Z,3.99
2019-01-02T11:17:00.337Z,3.99
2019-01-02T11:18:00.363Z,4.06
2019-01-02T11:19:00.351Z,4.03
2019-01-02T11:20:00.351Z,3.96
2019-01-02T11:21:00.325Z,3.94
2019-01-02T11:22:00.385Z,3.99
2019-01-02T11:23:00.368Z,4.04
2019-01-02T11:24:00.353Z,4.03
2019-01-02T11:25:00.353Z,4.20
2019-01-02T11:26:00.463Z,4.10
2019-01-02T11:27:00.348Z,4.09
2019-01-02T11:28:00.362Z,4.04
2019-01-02T11:29:00.394Z,4.00
2019-01-02T11:30:00.370Z,3.99
2019-01-02T11:31:00.360Z,4.02
2019-01-02T11:32:00.432Z,4.04
2019-01-02T11:33:00.407Z,4.09
2019-01-02T11:34:00.409Z,4.18
2019-01-02T11:35:00.375Z,4.14
2019-01-02T11:36:00.391Z,4.24
2019-01-02T11:37:00.487Z,4.24
2019-01-02T11:38:00.383Z,4.21
2019-01-02T11:39:00.386Z,4.09
2019-01-02T11:40:00.377Z,4.20
2019-01-02T11:41:00.369Z,4.24
2019-01-02T11:42:00.519Z,4.25
2019-01-02T11:43:00.567Z,4.30
2019-01-02T11:44:00.723Z,4.24
2019-01-02T11:45:00.486Z,4.43
2019-01-02T11:46:00.411Z,4.39
2019-01-02T11:47:00.403Z,4.36
2019-01-02T11:48:00.428Z,4.43
2019-01-02T11:49:00.417Z,4.42
2019-01-02T11:50:00.406Z,4.48
2019-01-02T11:51:00.414Z,4.52
2019-01-02T11:52:00.484Z,4.49
2019-01-02T11:53:00.444Z,4.52
2019-01-02T11:54:00.417Z,4.52
2019-01-02T11:55:00.406Z,4.53
2019-01-02T11:56:01.529Z,4.57
2019-01-02T11:57:00.430Z,4.50
2019-01-02T11:58:00.447Z,4.49
2019-01-02T11:59:00.441Z,4.46
2019-01-02T12:00:00.451Z,4.56
2019-01-02T12:01:00.430Z,4.49
2019-01-02T12:02:00.510Z,4.50
2019-01-02T12:03:00.451Z,4.53
2019-01-02T12:04:00.458Z,4.43
2019-01-02T12:05:00.448Z,4.31
2019-01-02T12:06:00.453Z,4.42
2019-01-02T12:07:00.495Z,4.45
2019-01-02T12:08:00.477Z,4.32
2019-01-02T12:09:00.445Z,4.40
2019-01-02T12:10:00.607Z,4.25
2019-01-02T12:11:00.531Z,4.27
2019-01-02T12:12:00.507Z,4.27
2019-01-02T12:13:00.481Z,4.31
2019-01-02T12:14:00.516Z,4.36
2019-01-02T12:15:00.546Z,4.30
2019-01-02T12:16:00.531Z,4.36
2019-01-02T12:17:00.515Z,4.32
2019-01-02T12:18:00.496Z,4.34
2019-01-02T12:19:00.516Z,4.31
2019-01-02T12:20:00.576Z,4.34
2019-01-02T12:21:00.532Z,4.36
2019-01-02T12:22:00.589Z,4.39
2019-01-02T12:23:00.568Z,4.39
2019-01-02T12:24:00.507Z,4.42
2019-01-02T12:25:00.528Z,4.27
2019-01-02T12:26:00.510Z,4.25
2019-01-02T12:27:00.512Z,4.31
2019-01-02T12:28:00.561Z,4.45
2019-01-02T12:29:00.577Z,4.38
2019-01-02T12:30:00.625Z,4.40
2019-01-02T12:31:00.518Z,4.40
2019-01-02T12:32:00.588Z,4.43
2019-01-02T12:33:00.772Z,4.30
2019-01-02T12:34:00.691Z,4.31
2019-01-02T12:35:00.539Z,4.42
2019-01-02T12:36:00.999Z,4.46
2019-01-02T12:37:00.527Z,4.40
2019-01-02T12:38:00.561Z,4.49
2019-01-02T12:39:00.619Z,4.42
2019-01-02T12:40:00.549Z,4.45
2019-01-02T12:41:00.810Z,4.46
2019-01-02T12:42:00.581Z,4.46
2019-01-02T12:43:00.540Z,4.50
2019-01-02T12:44:00.560Z,4.53
2019-01-02T12:45:01.516Z,4.49
2019-01-02T12:46:00.571Z,4.49
2019-01-02T12:47:00.578Z,4.45
2019-01-02T12:48:00.588Z,4.49
2019-01-02T12:49:00.582Z,4.50
2019-01-02T12:50:00.604Z,4.48
2019-01-02T12:51:00.680Z,4.48
2019-01-02T12:52:00.606Z,4.40
2019-01-02T12:53:00.580Z,4.36
2019-01-02T12:54:00.580Z,4.45
2019-01-02T12:55:00.571Z,4.42
2019-01-02T12:56:00.643Z,4.40
2019-01-02T12:57:00.585Z,4.43
2019-01-02T12:58:00.574Z,4.28
2019-01-02T12:59:00.912Z,4.42
2019-01-02T13:00:00.670Z,4.52
2019-01-02T13:01:00.616Z,4.46
2019-01-02T13:02:00.603Z,4.52
2019-01-02T13:03:00.606Z,4.49
2019-01-02T13:04:00.621Z,4.48
2019-01-02T13:05:00.597Z,4.48
2019-01-02T13:06:00.634Z,4.45
2019-01-02T13:07:00.782Z,4.49
2019-01-02T13:08:00.682Z,4.49
2019-01-02T13:09:00.638Z,4.46
2019-01-02T13:10:00.661Z,4.49
2019-01-02T13:11:00.604Z,4.52
2019-01-02T13:12:00.642Z,4.57
2019-01-02T13:13:00.720Z,4.64
2019-01-02T13:14:00.657Z,4.63
2019-01-02T13:15:00.642Z,4.67
2019-01-02T13:16:00.686Z,4.66
2019-01-02T13:17:00.657Z,4.70
2019-01-02T13:18:00.740Z,4.63
2019-01-02T13:19:00.680Z,4.56